createdAt,value
2018-01-26T00:01:49.175Z,40.88
2018-01-26T00:04:15.908Z,44.30
2018-01-26T00:06:42.642Z,42.40
2018-01-26T00:09:09.390Z,43.87
2018-01-26T00:11:36.122Z,43.30
2018-01-26T00:14:02.856Z,43.72
2018-01-26T00:16:29.615Z,43.03
2018-01-26T00:18:56.360Z,39.95
2018-01-26T00:21:23.104Z,44.92
2018-01-26T00:23:49.909Z,47.97
2018-01-26T00:26:16.637Z,43.70
2018-01-26T00:28:43.389Z,48.70
2018-01-26T00:31:10.137Z,44.15
2018-01-26T00:33:36.891Z,48.17
2018-01-26T00:36:03.618Z,44.55
2018-01-26T00:38:30.375Z,42.90
2018-01-26T00:40:57.133Z,42.08
2018-01-26T00:43:23.927Z,47.50
2018-01-26T00:45:50.680Z,42.88
2018-01-26T00:48:17.416Z,47.25
2018-01-26T00:50:44.151Z,46.97
2018-01-26T00:53:10.930Z,41.25
2018-01-26T00:55:37.657Z,47.10
2018-01-26T00:58:04.388Z,39.97
2018-01-26T01:00:31.125Z,39.47
2018-01-26T01:02:57.860Z,52.50
2018-01-26T01:05:24.586Z,49.47
2018-01-26T01:07:51.321Z,43.47
2018-01-26T01:10:18.066Z,42.22
2018-01-26T01:12:44.829Z,44.28
2018-01-26T01:15:11.573Z,42.42
2018-01-26T01:17:38.301Z,43.97
2018-01-26T01:20:05.034Z,46.28
2018-01-26T01:22:31.792Z,45.88
2018-01-26T01:24:58.534Z,45.47
2018-01-26T01:27:25.275Z,47.17
2018-01-26T01:29:52.014Z,44.88
2018-01-26T01:32:18.742Z,45.85
2018-01-26T01:34:45.492Z,45.22
2018-01-26T01:37:12.276Z,46.40
2018-01-26T01:39:39.003Z,43.90
2018-01-26T01:42:05.718Z,41.08
2018-01-26T01:44:32.440Z,43.53
2018-01-26T01:46:59.198Z,45.00
2018-01-26T01:49:25.934Z,50.38
2018-01-26T01:51:52.718Z,46.22
2018-01-26T01:54:19.442Z,42.17
2018-01-26T01:56:46.167Z,43.97
2018-01-26T01:59:12.902Z,45.35
2018-01-26T02:01:39.699Z,48.10
2018-01-26T02:04:06.444Z,47.40
2018-01-26T02:06:33.198Z,44.60
2018-01-26T02:08:59.922Z,41.13
2018-01-26T02:11:26.674Z,42.55
2018-01-26T02:13:53.451Z,42.45
2018-01-26T02:16:20.174Z,44.58
2018-01-26T02:18:46.933Z,44.15
2018-01-26T02:21:13.685Z,44.33
2018-01-26T02:23:40.430Z,43.63
2018-01-26T02:26:07.146Z,45.42
2018-01-26T02:28:33.935Z,40.95
2018-01-26T02:31:00.651Z,43.00
2018-01-26T02:33:27.385Z,42.78
2018-01-26T02:35:54.171Z,46.83
2018-01-26T02:38:20.927Z,43.85
2018-01-26T02:40:47.676Z,43.47
2018-01-26T02:43:14.414Z,42.20
2018-01-26T02:45:41.137Z,45.83
2018-01-26T02:48:07.859Z,47.65
2018-01-26T02:50:34.621Z,42.20
2018-01-26T02:53:01.340Z,42.58
2018-01-26T02:55:28.072Z,45.35
2018-01-26T02:57:54.844Z,39.70
2018-01-26T03:00:21.612Z,43.03
2018-01-26T03:02:48.344Z,42.33
2018-01-26T03:05:15.177Z,76.80
2018-01-26T03:07:41.914Z,53.92
2018-01-26T03:10:08.661Z,46.13
2018-01-26T03:12:35.406Z,49.22
2018-01-26T03:15:02.205Z,44.10
2018-01-26T03:17:28.933Z,43.17
2018-01-26T03:19:55.669Z,42.08
2018-01-26T03:22:22.421Z,43.95
2018-01-26T03:24:49.156Z,45.67
2018-01-26T03:27:15.906Z,45.17
2018-01-26T03:29:42.636Z,43.15
2018-01-26T03:32:09.381Z,42.60
2018-01-26T03:34:36.131Z,37.42
2018-01-26T03:37:02.856Z,44.10
2018-01-26T03:39:29.590Z,47.62
2018-01-26T03:41:56.347Z,44.58
2018-01-26T03:44:23.070Z,39.92
2018-01-26T03:46:49.790Z,38.15
2018-01-26T03:49:16.542Z,42.50
2018-01-26T03:51:43.315Z,41.70
2018-01-26T03:54:10.129Z,46.63
2018-01-26T03:56:36.861Z,41.67
2018-01-26T03:59:03.682Z,44.30
2018-01-26T04:01:30.412Z,42.53
2018-01-26T04:03:57.166Z,48.13
2018-01-26T04:06:23.893Z,51.75
2018-01-26T04:08:50.646Z,47.22
2018-01-26T04:11:17.451Z,50.75
2018-01-26T04:13:44.168Z,42.50
2018-01-26T04:16:10.895Z,44.15
2018-01-26T04:18:37.643Z,50.20
2018-01-26T04:21:04.389Z,46.83
2018-01-26T04:23:31.110Z,43.80
2018-01-26T04:25:57.852Z,45.33
2018-01-26T04:28:24.589Z,45.55
2018-01-26T04:30:51.401Z,44.90
2018-01-26T04:33:18.164Z,45.58
2018-01-26T04:35:44.888Z,41.70
2018-01-26T04:38:11.612Z,48.45
2018-01-26T04:40:38.374Z,47.33
2018-01-26T04:43:05.113Z,53.97
2018-01-26T04:45:31.881Z,46.08
2018-01-26T04:47:58.643Z,47.03
2018-01-26T04:50:25.369Z,50.03
2018-01-26T04:52:52.112Z,53.00
2018-01-26T04:55:18.856Z,45.45
2018-01-26T04:57:45.809Z,52.45
2018-01-26T05:00:12.568Z,50.03
2018-01-26T05:02:39.301Z,43.95
2018-01-26T05:05:06.041Z,52.33
2018-01-26T05:07:32.883Z,41.70
2018-01-26T05:09:59.614Z,40.33
2018-01-26T05:12:26.354Z,40.80
2018-01-26T05:14:53.097Z,42.70
2018-01-26T05:17:19.836Z,42.78
2018-01-26T05:19:46.569Z,44.67
2018-01-26T05:22:13.342Z,39.67
2018-01-26T05:24:40.093Z,44.30
2018-01-26T05:27:06.825Z,45.42
2018-01-26T05:29:33.552Z,41.63
2018-01-26T05:32:00.314Z,42.17
2018-01-26T05:34:27.124Z,41.75
2018-01-26T05:36:53.852Z,41.95
2018-01-26T05:39:20.606Z,46.37
2018-01-26T05:41:47.339Z,47.05
2018-01-26T05:44:14.073Z,48.03
2018-01-26T05:46:40.815Z,42.20
2018-01-26T05:49:07.555Z,46.35
2018-01-26T05:51:34.279Z,49.10
2018-01-26T05:54:01.021Z,50.28
2018-01-26T05:56:27.752Z,41.53
2018-01-26T05:58:54.482Z,38.10
2018-01-26T06:01:21.260Z,46.05
2018-01-26T06:03:48.002Z,41.55
2018-01-26T06:06:14.746Z,38.22
2018-01-26T06:08:41.501Z,40.17
2018-01-26T06:11:08.235Z,42.78
2018-01-26T06:13:34.966Z,43.28
2018-01-26T06:16:01.753Z,41.03
2018-01-26T06:18:28.489Z,48.10
2018-01-26T06:20:55.251Z,50.17
2018-01-26T06:23:22.036Z,45.65
2018-01-26T06:25:48.814Z,46.33
2018-01-26T06:28:15.672Z,46.37
2018-01-26T06:30:42.538Z,40.58
2018-01-26T06:33:09.254Z,45.93
2018-01-26T06:35:35.974Z,40.57
2018-01-26T06:38:02.749Z,44.40
2018-01-26T06:40:29.491Z,42.47
2018-01-26T06:42:56.234Z,52.20
2018-01-26T06:45:23.051Z,44.42
2018-01-26T06:47:49.798Z,38.70
2018-01-26T06:50:16.539Z,42.70
2018-01-26T06:52:43.310Z,42.22
2018-01-26T06:55:10.050Z,41.78
2018-01-26T06:57:36.819Z,41.03
2018-01-26T07:00:03.599Z,43.78
2018-01-26T07:02:30.330Z,39.67
2018-01-26T07:04:57.078Z,46.08
2018-01-26T07:07:23.827Z,40.00
2018-01-26T07:09:50.602Z,43.75
2018-01-26T07:12:17.326Z,45.27
2018-01-26T07:14:44.046Z,40.17
2018-01-26T07:17:10.776Z,39.28
2018-01-26T07:19:37.530Z,40.22
2018-01-26T07:22:04.290Z,44.65
2018-01-26T07:24:31.014Z,42.63
2018-01-26T07:26:57.733Z,39.75
2018-01-26T07:29:24.474Z,36.90
2018-01-26T07:31:51.196Z,47.13
2018-01-26T07:34:17.914Z,41.27
2018-01-26T07:36:44.683Z,41.37
2018-01-26T07:39:11.409Z,50.20
2018-01-26T07:41:38.146Z,43.80
2018-01-26T07:44:04.873Z,46.43
2018-01-26T07:46:31.637Z,47.73
2018-01-26T07:48:58.358Z,46.23
2018-01-26T07:51:25.212Z,46.90
2018-01-26T07:53:51.935Z,43.00
2018-01-26T07:56:18.662Z,54.57
2018-01-26T07:58:45.399Z,51.37
2018-01-26T08:01:12.107Z,53.63
2018-01-26T08:03:38.817Z,52.57
2018-01-26T08:06:05.549Z,53.30
2018-01-26T08:08:32.292Z,60.70
2018-01-26T08:10:59.010Z,53.43
2018-01-26T08:13:25.754Z,54.27
2018-01-26T08:15:52.462Z,49.83
2018-01-26T08:18:19.238Z,57.73
2018-01-26T08:20:46.031Z,50.07
2018-01-26T08:23:12.755Z,47.90
2018-01-26T08:25:39.492Z,50.60
2018-01-26T08:28:06.234Z,52.67
2018-01-26T08:30:32.959Z,48.97
2018-01-26T08:32:59.694Z,55.17
2018-01-26T08:35:26.514Z,56.73
2018-01-26T08:37:53.228Z,58.87
2018-01-26T08:40:20.027Z,48.03
2018-01-26T08:42:46.762Z,48.53
2018-01-26T08:45:13.478Z,52.60
2018-01-26T08:47:40.185Z,53.90
2018-01-26T08:50:06.936Z,48.23
2018-01-26T08:52:33.652Z,46.10
2018-01-26T08:55:00.415Z,45.50
2018-01-26T08:57:27.149Z,46.93
2018-01-26T08:59:53.866Z,39.40
2018-01-26T09:02:20.603Z,40.00
2018-01-26T09:04:47.353Z,39.90
2018-01-26T09:07:14.178Z,38.60
2018-01-26T09:09:40.902Z,36.67
2018-01-26T09:12:07.636Z,37.97
2018-01-26T09:14:34.376Z,31.13
2018-01-26T09:17:01.097Z,34.00
2018-01-26T09:19:27.831Z,40.43
2018-01-26T09:21:54.547Z,36.97
2018-01-26T09:24:21.260Z,36.70
2018-01-26T09:26:48.030Z,32.53
2018-01-26T09:29:14.745Z,31.77
2018-01-26T09:31:41.451Z,34.67
2018-01-26T09:34:08.222Z,37.33
2018-01-26T09:36:34.933Z,33.70
2018-01-26T09:39:01.647Z,37.20
2018-01-26T09:41:28.361Z,33.43
2018-01-26T09:43:55.071Z,39.83
2018-01-26T09:46:21.789Z,37.97
2018-01-26T09:48:48.539Z,31.93
2018-01-26T09:51:15.253Z,33.67
2018-01-26T09:53:41.988Z,38.37
2018-01-26T09:56:08.713Z,40.07
2018-01-26T09:58:35.437Z,38.60
2018-01-26T10:01:02.153Z,46.90
2018-01-26T10:03:28.880Z,51.30
2018-01-26T10:05:55.624Z,51.70
2018-01-26T10:08:22.348Z,65.13
2018-01-26T10:10:49.101Z,50.37
2018-01-26T10:13:15.819Z,51.90
2018-01-26T10:16:06.568Z,46.93
2018-01-26T10:18:38.935Z,46.23
2018-01-26T10:21:05.673Z,39.43
2018-01-26T10:23:32.430Z,42.73
2018-01-26T10:25:59.137Z,47.13
2018-01-26T10:28:25.874Z,57.87
2018-01-26T10:30:52.606Z,55.70
2018-01-26T10:33:19.357Z,52.07
2018-01-26T10:35:46.085Z,56.13
2018-01-26T10:38:12.871Z,48.77
2018-01-26T10:40:39.586Z,45.20
2018-01-26T10:43:06.334Z,45.10
2018-01-26T10:45:33.222Z,46.37
2018-01-26T10:47:59.953Z,44.57
2018-01-26T10:50:26.706Z,54.40
2018-01-26T10:52:53.439Z,39.23
2018-01-26T10:55:20.425Z,41.23
2018-01-26T10:57:47.195Z,36.47
2018-01-26T11:00:13.927Z,34.97
2018-01-26T11:02:40.703Z,36.23
2018-01-26T11:05:10.468Z,54.73
2018-01-26T11:07:40.811Z,39.50
2018-01-26T11:10:11.902Z,37.87
2018-01-26T11:12:41.709Z,38.07
2018-01-26T11:15:13.053Z,37.07
2018-01-26T11:17:55.014Z,41.43
2018-01-26T11:20:22.632Z,40.67
2018-01-26T11:22:49.651Z,36.07
2018-01-26T11:25:16.434Z,43.77
2018-01-26T11:27:43.260Z,57.40
2018-01-26T11:30:09.970Z,62.03
2018-01-26T11:41:43.091Z,60.13
2018-01-26T11:50:45.639Z,55.10
2018-01-26T12:02:16.368Z,47.20
2018-01-26T12:04:43.093Z,50.07
2018-01-26T12:13:28.998Z,43.63
2018-01-26T12:24:53.724Z,52.17
2018-01-26T12:27:20.481Z,50.97
2018-01-26T12:29:47.250Z,47.53
2018-01-26T12:32:14.030Z,59.70
2018-01-26T12:34:47.144Z,46.83
2018-01-26T12:37:13.895Z,47.47
2018-01-26T12:39:40.632Z,50.97
2018-01-26T12:42:07.369Z,49.67
2018-01-26T12:44:34.098Z,45.53
2018-01-26T12:47:00.842Z,45.20
2018-01-26T12:49:27.562Z,55.47
2018-01-26T12:51:54.290Z,46.27
2018-01-26T12:54:21.004Z,53.23
2018-01-26T12:56:47.714Z,53.90
2018-01-26T12:59:14.425Z,51.47
2018-01-26T13:01:41.151Z,54.83
2018-01-26T13:04:07.868Z,55.17
2018-01-26T13:06:34.591Z,54.87
2018-01-26T13:09:01.329Z,47.17
2018-01-26T13:11:28.056Z,39.13
2018-01-26T13:13:54.766Z,58.43
2018-01-26T13:16:21.515Z,54.20
2018-01-26T13:18:48.265Z,51.63
2018-01-26T13:21:14.978Z,48.13
2018-01-26T13:23:41.706Z,52.17
2018-01-26T13:26:08.437Z,53.53
2018-01-26T13:28:36.432Z,55.37
2018-01-26T13:31:03.157Z,63.87
2018-01-26T13:33:29.904Z,59.37
2018-01-26T13:35:56.653Z,46.97
2018-01-26T13:38:23.420Z,48.53
2018-01-26T13:40:50.228Z,49.00
2018-01-26T13:43:21.088Z,49.23
2018-01-26T13:46:11.681Z,61.87
2018-01-26T13:54:43.994Z,53.63
2018-01-26T14:03:26.486Z,52.13
2018-01-26T14:12:18.034Z,57.53
2018-01-26T14:14:44.787Z,56.50
2018-01-26T14:17:11.558Z,56.40
2018-01-26T14:19:38.309Z,61.73
2018-01-26T14:22:05.031Z,58.20
2018-01-26T14:24:31.759Z,53.27
2018-01-26T14:26:58.485Z,55.87
2018-01-26T14:29:25.203Z,59.23
2018-01-26T14:31:51.921Z,53.00
2018-01-26T14:34:18.678Z,62.67
2018-01-26T14:36:45.421Z,57.23
2018-01-26T14:39:12.153Z,51.50
2018-01-26T14:41:38.892Z,53.90
2018-01-26T14:44:05.606Z,61.67
2018-01-26T14:46:32.334Z,70.30
2018-01-26T14:48:59.049Z,54.97
2018-01-26T14:51:25.762Z,60.57
2018-01-26T14:53:52.526Z,56.80
2018-01-26T14:56:19.310Z,57.93
2018-01-26T14:58:46.034Z,62.83
2018-01-26T15:01:12.761Z,68.37
2018-01-26T15:03:39.496Z,60.33
2018-01-26T15:06:06.232Z,58.97
2018-01-26T15:08:32.953Z,58.37
2018-01-26T15:10:59.682Z,61.23
2018-01-26T15:13:26.430Z,65.83
2018-01-26T15:15:53.152Z,56.47
2018-01-26T15:18:19.888Z,60.33
2018-01-26T15:20:46.611Z,55.87
2018-01-26T15:23:13.350Z,64.10
2018-01-26T15:25:40.094Z,72.83
2018-01-26T15:28:06.842Z,66.80
2018-01-26T15:30:33.560Z,62.43
2018-01-26T15:33:00.319Z,64.83
2018-01-26T15:35:27.047Z,57.40
2018-01-26T15:37:53.757Z,55.50
2018-01-26T15:40:20.510Z,56.13
2018-01-26T15:42:47.240Z,57.57
2018-01-26T15:45:13.980Z,54.30
2018-01-26T15:47:40.717Z,49.00
2018-01-26T15:50:07.451Z,53.10
2018-01-26T15:52:34.223Z,55.87
2018-01-26T15:55:00.963Z,53.30
2018-01-26T15:57:27.677Z,60.17
2018-01-26T15:59:54.413Z,58.33
2018-01-26T16:02:21.187Z,52.70
2018-01-26T16:04:47.909Z,59.87
2018-01-26T16:07:14.671Z,61.30
2018-01-26T16:09:41.411Z,49.17
2018-01-26T16:12:08.141Z,49.23
2018-01-26T16:14:34.894Z,52.63
2018-01-26T16:17:01.622Z,48.30
2018-01-26T16:19:28.355Z,60.30
2018-01-26T16:21:55.080Z,57.20
2018-01-26T16:24:21.837Z,61.37
2018-01-26T16:26:48.561Z,51.27
2018-01-26T16:29:15.287Z,56.03
2018-01-26T16:31:42.025Z,57.70
2018-01-26T16:34:08.753Z,53.70
2018-01-26T16:36:35.556Z,54.95
2018-01-26T16:39:02.321Z,47.43
2018-01-26T16:41:29.071Z,49.43
2018-01-26T16:43:55.789Z,54.33
2018-01-26T16:46:22.556Z,45.17
2018-01-26T16:48:49.311Z,51.10
2018-01-26T16:51:16.062Z,52.63
2018-01-26T16:53:42.795Z,56.87
2018-01-26T16:56:09.548Z,65.67
2018-01-26T16:58:36.281Z,55.30
2018-01-26T17:01:03.012Z,53.00
2018-01-26T17:03:29.726Z,52.27
2018-01-26T17:05:56.444Z,50.30
2018-01-26T17:08:23.162Z,50.50
2018-01-26T17:10:49.890Z,54.60
2018-01-26T17:13:16.612Z,56.87
2018-01-26T17:15:43.356Z,61.03
2018-01-26T17:18:10.077Z,53.17
2018-01-26T17:20:36.826Z,56.50
2018-01-26T17:23:03.613Z,52.33
2018-01-26T17:25:30.344Z,54.80
2018-01-26T17:27:57.098Z,54.03
2018-01-26T17:30:23.872Z,53.67
2018-01-26T17:32:50.688Z,62.53
2018-01-26T17:35:17.424Z,55.27
2018-01-26T17:37:44.181Z,51.63
2018-01-26T17:40:10.903Z,54.40
2018-01-26T17:42:37.670Z,47.60
2018-01-26T17:45:04.393Z,48.97
2018-01-26T17:47:31.183Z,55.97
2018-01-26T17:49:57.942Z,55.63
2018-01-26T17:52:24.678Z,47.73
2018-01-26T17:54:51.426Z,56.27
2018-01-26T17:57:18.177Z,56.17
2018-01-26T17:59:44.931Z,49.53
2018-01-26T18:02:11.692Z,51.47
2018-01-26T18:04:38.488Z,66.67
2018-01-26T18:07:05.229Z,55.10
2018-01-26T18:09:31.971Z,55.50
2018-01-26T18:11:58.731Z,54.13
2018-01-26T18:14:25.489Z,57.37
2018-01-26T18:16:52.300Z,48.90
2018-01-26T18:19:19.044Z,50.47
2018-01-26T18:21:45.772Z,50.27
2018-01-26T18:27:05.456Z,46.60
2018-01-26T18:29:39.145Z,54.40
2018-01-26T18:32:12.217Z,48.83
2018-01-26T18:34:46.785Z,48.90
2018-01-26T18:37:20.016Z,52.83
2018-01-26T18:40:02.316Z,50.70
2018-01-26T18:42:42.747Z,48.50
2018-01-26T18:45:16.770Z,59.20
2018-01-26T18:47:43.534Z,49.40
2018-01-26T18:50:10.292Z,53.03
2018-01-26T18:52:37.056Z,56.90
2018-01-26T18:55:03.915Z,59.77
2018-01-26T18:57:30.677Z,62.43
2018-01-26T18:59:57.437Z,57.87
2018-01-26T19:02:24.206Z,56.97
2018-01-26T19:04:50.972Z,61.00
2018-01-26T19:07:17.744Z,57.33
2018-01-26T19:09:48.130Z,66.37
2018-01-26T19:12:36.688Z,60.90
2018-01-26T19:15:04.846Z,61.70
2018-01-26T19:17:31.595Z,61.87
2018-01-26T19:19:58.341Z,70.30
2018-01-26T19:22:25.109Z,72.10
2018-01-26T19:24:51.867Z,58.90
2018-01-26T19:27:18.658Z,65.73
2018-01-26T19:29:45.451Z,60.63
2018-01-26T19:32:12.261Z,65.03
2018-01-26T19:34:39.129Z,64.17
2018-01-26T19:37:05.942Z,59.80
2018-01-26T19:39:32.665Z,59.70
2018-01-26T19:41:59.655Z,56.00
2018-01-26T19:44:26.491Z,66.10
2018-01-26T19:46:53.534Z,58.40
2018-01-26T19:49:20.320Z,59.70
2018-01-26T19:51:47.089Z,56.30
2018-01-26T19:54:13.832Z,64.37
2018-01-26T19:56:40.601Z,62.63
2018-01-26T19:59:07.343Z,57.40
2018-01-26T20:01:34.401Z,63.73
2018-01-26T20:04:04.069Z,57.23
2018-01-26T20:06:42.849Z,61.07
2018-01-26T20:09:09.632Z,57.30
2018-01-26T20:11:36.631Z,57.13
2018-01-26T20:14:03.754Z,59.13
2018-01-26T20:16:30.544Z,68.63
2018-01-26T20:18:57.399Z,53.37
2018-01-26T20:21:24.410Z,64.97
2018-01-26T20:23:51.470Z,57.80
2018-01-26T20:26:18.523Z,67.27
2018-01-26T20:28:45.302Z,56.07
2018-01-26T20:31:12.328Z,55.27
2018-01-26T20:33:39.214Z,57.93
2018-01-26T20:36:05.956Z,56.37
2018-01-26T20:38:32.693Z,58.17
2018-01-26T20:40:59.547Z,58.23
2018-01-26T20:43:26.358Z,64.47
2018-01-26T20:45:53.141Z,64.90
2018-01-26T20:48:19.885Z,62.70
2018-01-26T20:50:46.710Z,62.40
2018-01-26T20:53:13.472Z,56.00
2018-01-26T20:55:40.226Z,62.70
2018-01-26T20:58:07.018Z,56.50
2018-01-26T21:00:34.052Z,54.90
2018-01-26T21:03:00.895Z,54.40
2018-01-26T21:05:27.629Z,62.10
2018-01-26T21:07:54.638Z,60.03
2018-01-26T21:10:21.792Z,57.33
2018-01-26T21:12:48.818Z,59.60
2018-01-26T21:15:15.622Z,65.07
2018-01-26T21:17:42.415Z,60.33
2018-01-26T21:20:09.168Z,54.50
2018-01-26T21:22:35.959Z,63.47
2018-01-26T21:25:02.741Z,59.53
2018-01-26T21:27:29.515Z,55.47
2018-01-26T21:29:56.281Z,59.08
2018-01-26T21:32:23.120Z,50.57
2018-01-26T21:34:49.877Z,66.28
2018-01-26T21:37:16.601Z,56.05
2018-01-26T21:39:43.405Z,62.03
2018-01-26T21:42:10.156Z,65.07
2018-01-26T21:44:36.953Z,65.82
2018-01-26T21:47:03.706Z,60.45
2018-01-26T21:49:30.483Z,61.53
2018-01-26T21:51:57.229Z,63.42
2018-01-26T21:54:23.976Z,62.47
2018-01-26T21:56:50.757Z,65.15
2018-01-26T21:59:17.529Z,51.58
2018-01-26T22:01:44.302Z,56.37
2018-01-26T22:04:11.051Z,58.78
2018-01-26T22:06:43.730Z,51.25
2018-01-26T22:09:10.559Z,53.38
2018-01-26T22:11:37.320Z,61.42
2018-01-26T22:14:04.058Z,61.20
2018-01-26T22:16:30.798Z,65.40
2018-01-26T22:18:57.547Z,69.03
2018-01-26T22:21:24.298Z,60.12
2018-01-26T22:23:51.060Z,65.03
2018-01-26T22:26:17.808Z,63.08
2018-01-26T22:28:44.571Z,64.93
2018-01-26T22:31:11.314Z,58.47
2018-01-26T22:33:38.074Z,55.15
2018-01-26T22:36:04.837Z,56.88
2018-01-26T22:38:31.622Z,60.35
2018-01-26T22:40:58.351Z,58.70
2018-01-26T22:43:25.118Z,55.30
2018-01-26T22:45:51.866Z,55.45
2018-01-26T22:48:18.657Z,59.13
2018-01-26T22:50:45.405Z,55.97
2018-01-26T22:53:12.143Z,53.67
2018-01-26T22:55:38.893Z,54.03
2018-01-26T22:58:05.622Z,59.08
2018-01-26T23:00:32.370Z,83.32
2018-01-26T23:02:59.105Z,99.93
2018-01-26T23:05:25.847Z,56.90
2018-01-26T23:07:52.655Z,49.50
2018-01-26T23:10:19.401Z,85.10
2018-01-26T23:12:46.135Z,83.35
2018-01-26T23:15:12.967Z,118.25
2018-01-26T23:17:39.724Z,108.70
2018-01-26T23:20:06.458Z,61.13
2018-01-26T23:22:33.249Z,82.60
2018-01-26T23:25:00.031Z,70.22
2018-01-26T23:27:26.804Z,81.18
2018-01-26T23:29:54.425Z,142.75
2018-01-26T23:32:21.188Z,110.95
2018-01-26T23:34:47.963Z,100.78
2018-01-26T23:37:14.726Z,105.20
2018-01-26T23:39:41.518Z,110.28
2018-01-26T23:42:08.299Z,94.22
2018-01-26T23:44:35.007Z,70.07
2018-01-26T23:47:01.802Z,54.22
2018-01-26T23:49:28.560Z,46.33
2018-01-26T23:51:55.290Z,61.85
2018-01-26T23:54:22.013Z,62.70
2018-01-26T23:56:48.756Z,53.83
2018-01-26T23:59:15.500Z,68.25
